Time;durP1;ratioP1;P1;durP2;ratioP2;P2;SDS_P1;SDS_P2;PMS_P1;PMS_P2;Temp;Humidity;BMP_temperature;BMP_pressure;BME280_temperature;BME280_humidity;BME280_pressure;Samples;Min_cycle;Max_cycle;Signal;HPM_P1;HPM_P2
2023/07/02 00:01:49;;;;;;;0.00;0.00;;;;;;;;;;5074454;28;20067;-79
2023/07/02 00:04:16;;;;;;;0.65;0.10;;;;;;;;;;5058279;28;20041;-79
2023/07/02 00:06:45;;;;;;;0.00;0.00;;;;;;;;;;5074582;28;20108;-79
2023/07/02 00:09:12;;;;;;;0.00;0.00;;;;;;;;;;5074587;28;20044;-79
2023/07/02 00:11:38;;;;;;;0.00;0.00;;;;;;;;;;5075783;28;20045;-79
2023/07/02 00:14:04;;;;;;;0.00;0.00;;;;;;;;;;5074414;28;20052;-79
2023/07/02 00:16:30;;;;;;;0.00;0.00;;;;;;;;;;5074369;28;20037;-79
2023/07/02 00:18:57;;;;;;;0.00;0.00;;;;;;;;;;5074195;28;20048;-79
2023/07/02 00:21:27;;;;;;;0.00;0.00;;;;;;;;;;5075391;28;20040;-79
2023/07/02 00:23:54;;;;;;;0.00;0.00;;;;;;;;;;5074282;28;20060;-79
2023/07/02 00:26:20;;;;;;;0.00;0.00;;;;;;;;;;5075341;28;20029;-79
2023/07/02 00:28:46;;;;;;;0.00;0.00;;;;;;;;;;5073987;28;20051;-79
2023/07/02 00:31:12;;;;;;;0.00;0.00;;;;;;;;;;5075348;28;20090;-79
2023/07/02 00:33:38;;;;;;;0.00;0.00;;;;;;;;;;5074148;28;20056;-79
2023/07/02 00:36:04;;;;;;;0.00;0.00;;;;;;;;;;5075342;28;20476;-79
2023/07/02 00:38:30;;;;;;;0.00;0.00;;;;;;;;;;5075187;28;20071;-79
2023/07/02 00:40:56;;;;;;;0.00;0.00;;;;;;;;;;5073795;28;20045;-79
2023/07/02 00:43:23;;;;;;;0.00;0.00;;;;;;;;;;5073727;28;20041;-79
2023/07/02 00:45:49;;;;;;;0.00;0.00;;;;;;;;;;5074931;28;20041;-79
2023/07/02 00:48:15;;;;;;;0.00;0.00;;;;;;;;;;5073539;28;20056;-79
2023/07/02 00:50:41;;;;;;;0.00;0.00;;;;;;;;;;5073419;28;20403;-79
2023/07/02 00:53:07;;;;;;;0.43;0.43;;;;;;;;;;5073561;28;20094;-79
2023/07/02 00:55:33;;;;;;;0.00;0.00;;;;;;;;;;5073477;28;20049;-79
2023/07/02 00:57:59;;;;;;;0.00;0.00;;;;;;;;;;5056666;28;20053;-79
2023/07/02 01:00:25;;;;;;;0.00;0.00;;;;;;;;;;5073456;28;20040;-79
2023/07/02 01:02:58;;;;;;;0.00;0.00;;;;;;;;;;5074413;28;20037;-79
2023/07/02 01:05:24;;;;;;;0.00;0.00;;;;;;;;;;5075238;28;20109;-79
2023/07/02 01:07:50;;;;;;;0.00;0.00;;;;;;;;;;5073174;28;20046;-80
2023/07/02 01:10:16;;;;;;;0.00;0.00;;;;;;;;;;5074660;28;20119;-79
2023/07/02 01:12:42;;;;;;;0.00;0.00;;;;;;;;;;5074416;28;20040;-79
2023/07/02 01:15:09;;;;;;;0.00;0.00;;;;;;;;;;5073146;28;20093;-79
2023/07/02 01:17:39;;;;;;;0.00;0.00;;;;;;;;;;5072769;28;20064;-78
2023/07/02 01:20:08;;;;;;;0.00;0.00;;;;;;;;;;5072983;28;20044;-79
2023/07/02 01:22:34;;;;;;;0.00;0.00;;;;;;;;;;5073072;28;20430;-79
2023/07/02 01:25:00;;;;;;;0.00;0.00;;;;;;;;;;5074716;28;20068;-79
2023/07/02 01:27:30;;;;;;;0.13;0.10;;;;;;;;;;5072655;28;20090;-79
2023/07/02 01:29:56;;;;;;;0.00;0.00;;;;;;;;;;5073040;28;20483;-79
2023/07/02 01:32:22;;;;;;;0.00;0.00;;;;;;;;;;5072720;28;20044;-78
2023/07/02 01:34:48;;;;;;;0.00;0.00;;;;;;;;;;5074251;28;20119;-79
2023/07/02 01:37:16;;;;;;;0.00;0.00;;;;;;;;;;5073954;28;20048;-79
2023/07/02 01:39:42;;;;;;;0.00;0.00;;;;;;;;;;5073830;28;20388;-79
2023/07/02 01:42:09;;;;;;;0.00;0.00;;;;;;;;;;5072425;28;20047;-79
2023/07/02 01:44:35;;;;;;;0.00;0.00;;;;;;;;;;5072676;28;20384;-79
2023/07/02 01:47:01;;;;;;;0.00;0.00;;;;;;;;;;5073713;28;20047;-79
2023/07/02 01:49:27;;;;;;;0.00;0.00;;;;;;;;;;5072038;28;20037;-79
2023/07/02 01:51:54;;;;;;;0.00;0.00;;;;;;;;;;5072202;28;20049;-79
2023/07/02 01:54:21;;;;;;;0.00;0.00;;;;;;;;;;5072415;28;20051;-79
2023/07/02 01:56:47;;;;;;;0.00;0.00;;;;;;;;;;5073609;28;20045;-79
2023/07/02 01:59:13;;;;;;;0.00;0.00;;;;;;;;;;5072317;28;20041;-79
2023/07/02 02:01:42;;;;;;;0.00;0.00;;;;;;;;;;5072268;28;20123;-79
2023/07/02 02:04:09;;;;;;;0.00;0.00;;;;;;;;;;5071925;28;20487;-79
2023/07/02 02:06:36;;;;;;;0.00;0.00;;;;;;;;;;5073074;28;20438;-79
2023/07/02 02:09:04;;;;;;;0.00;0.00;;;;;;;;;;5071770;28;20058;-79
2023/07/02 02:11:30;;;;;;;0.10;0.00;;;;;;;;;;5071978;28;20048;-79
2023/07/02 02:13:56;;;;;;;0.00;0.00;;;;;;;;;;5073161;28;20040;-79
2023/07/02 02:16:23;;;;;;;0.00;0.00;;;;;;;;;;5071885;28;20446;-79
2023/07/02 02:18:52;;;;;;;0.00;0.00;;;;;;;;;;5071757;28;20536;-79
2023/07/02 02:21:19;;;;;;;0.20;0.00;;;;;;;;;;5071891;28;20098;-79
2023/07/02 02:23:45;;;;;;;0.00;0.00;;;;;;;;;;5072942;28;20072;-79
2023/07/02 02:26:11;;;;;;;0.00;0.00;;;;;;;;;;5071918;28;20079;-79
2023/07/02 02:28:37;;;;;;;0.00;0.00;;;;;;;;;;5071800;28;20036;-79
2023/07/02 02:31:03;;;;;;;0.00;0.00;;;;;;;;;;5071629;28;20491;-79
2023/07/02 02:33:29;;;;;;;0.00;0.00;;;;;;;;;;5071774;28;20045;-79
2023/07/02 02:35:55;;;;;;;0.00;0.00;;;;;;;;;;5071773;28;20043;-79
2023/07/02 02:38:21;;;;;;;0.00;0.00;;;;;;;;;;5071799;28;20044;-79
2023/07/02 02:40:47;;;;;;;0.00;0.00;;;;;;;;;;5073133;28;20040;-79
2023/07/02 02:43:13;;;;;;;0.00;0.00;;;;;;;;;;5072785;28;20036;-79
2023/07/02 02:45:39;;;;;;;0.00;0.00;;;;;;;;;;5071655;28;20047;-79
2023/07/02 02:48:05;;;;;;;0.00;0.00;;;;;;;;;;5072106;28;20074;-79
2023/07/02 02:50:31;;;;;;;0.00;0.00;;;;;;;;;;5071354;28;20044;-79
2023/07/02 02:52:57;;;;;;;0.00;0.00;;;;;;;;;;5073032;28;20040;-79
2023/07/02 02:55:23;;;;;;;0.35;0.35;;;;;;;;;;5072847;28;20046;-79
2023/07/02 02:57:49;;;;;;;0.00;0.00;;;;;;;;;;5071331;28;20460;-79
2023/07/02 03:00:16;;;;;;;0.00;0.00;;;;;;;;;;5071634;28;20128;-79
2023/07/02 03:02:43;;;;;;;0.00;0.00;;;;;;;;;;5071743;28;20044;-79
2023/07/02 03:05:09;;;;;;;0.00;0.00;;;;;;;;;;5072723;28;20472;-79
2023/07/02 03:07:35;;;;;;;0.00;0.00;;;;;;;;;;5071510;28;20190;-80
2023/07/02 03:10:01;;;;;;;0.00;0.00;;;;;;;;;;5071026;28;20170;-81
2023/07/02 03:12:27;;;;;;;0.00;0.00;;;;;;;;;;5071193;28;20036;-81
2023/07/02 03:14:55;;;;;;;0.00;0.00;;;;;;;;;;5071369;28;20048;-81
2023/07/02 03:17:21;;;;;;;0.00;0.00;;;;;;;;;;5071174;28;20048;-81
2023/07/02 03:19:47;;;;;;;0.00;0.00;;;;;;;;;;5074873;28;20062;-81
2023/07/02 03:22:13;;;;;;;0.00;0.00;;;;;;;;;;5076825;28;20072;-81
2023/07/02 03:24:39;;;;;;;0.00;0.00;;;;;;;;;;5074999;28;20036;-80
2023/07/02 03:27:06;;;;;;;0.00;0.00;;;;;;;;;;5075379;28;20467;-80
2023/07/02 03:29:32;;;;;;;0.00;0.00;;;;;;;;;;5076310;28;20097;-82
2023/07/02 03:31:58;;;;;;;0.00;0.00;;;;;;;;;;5074982;28;20120;-80
2023/07/02 03:34:24;;;;;;;0.00;0.00;;;;;;;;;;5076068;28;20067;-80
2023/07/02 03:36:50;;;;;;;0.00;0.00;;;;;;;;;;5075536;28;20495;-80
2023/07/02 03:39:17;;;;;;;0.00;0.00;;;;;;;;;;5075011;28;20040;-80
2023/07/02 03:41:43;;;;;;;0.08;0.00;;;;;;;;;;5076281;28;20101;-80
2023/07/02 03:44:09;;;;;;;0.00;0.00;;;;;;;;;;5075460;28;20048;-80
2023/07/02 03:46:35;;;;;;;0.00;0.00;;;;;;;;;;5074865;28;20502;-81
2023/07/02 03:49:02;;;;;;;0.05;0.00;;;;;;;;;;5074695;28;20048;-81
2023/07/02 03:51:28;;;;;;;0.00;0.00;;;;;;;;;;5075075;28;20123;-79
2023/07/02 03:53:54;;;;;;;0.00;0.00;;;;;;;;;;5075805;28;20123;-80
2023/07/02 03:56:20;;;;;;;0.00;0.00;;;;;;;;;;5075978;28;20039;-80
2023/07/02 03:58:47;;;;;;;0.00;0.00;;;;;;;;;;5076169;28;20048;-81
2023/07/02 04:01:13;;;;;;;0.00;0.00;;;;;;;;;;5075682;28;20159;-81
2023/07/02 04:03:39;;;;;;;0.00;0.00;;;;;;;;;;5075870;28;20036;-80
2023/07/02 04:06:08;;;;;;;0.00;0.00;;;;;;;;;;5074709;28;20518;-81
2023/07/02 04:08:34;;;;;;;0.00;0.00;;;;;;;;;;5074604;28;20044;-82
2023/07/02 04:11:00;;;;;;;0.00;0.00;;;;;;;;;;5074436;28;20047;-80
2023/07/02 04:13:26;;;;;;;0.00;0.00;;;;;;;;;;5074447;28;20033;-80
2023/07/02 04:15:52;;;;;;;0.00;0.00;;;;;;;;;;5074095;28;20036;-80
2023/07/02 04:18:18;;;;;;;0.25;0.10;;;;;;;;;;5074418;28;20083;-80
2023/07/02 04:20:44;;;;;;;0.00;0.00;;;;;;;;;;5074352;28;20052;-80
2023/07/02 04:23:10;;;;;;;0.00;0.00;;;;;;;;;;5075561;28;20512;-81
2023/07/02 04:25:36;;;;;;;0.00;0.00;;;;;;;;;;5074234;28;20040;-81
2023/07/02 04:28:02;;;;;;;0.00;0.00;;;;;;;;;;5074213;28;20044;-80
2023/07/02 04:30:28;;;;;;;0.00;0.00;;;;;;;;;;5073804;28;20048;-80
2023/07/02 04:32:54;;;;;;;0.00;0.00;;;;;;;;;;5074201;28;20495;-80
2023/07/02 04:35:20;;;;;;;0.00;0.00;;;;;;;;;;5075231;28;20036;-81
2023/07/02 04:37:46;;;;;;;0.00;0.00;;;;;;;;;;5074520;28;20040;-80
2023/07/02 04:40:12;;;;;;;0.00;0.00;;;;;;;;;;5073606;28;20056;-80
2023/07/02 04:42:39;;;;;;;0.00;0.00;;;;;;;;;;5074111;28;20052;-80
2023/07/02 04:45:06;;;;;;;0.00;0.00;;;;;;;;;;5075276;28;20036;-82
2023/07/02 04:47:32;;;;;;;0.00;0.00;;;;;;;;;;5073840;28;20075;-82
2023/07/02 04:49:58;;;;;;;0.00;0.00;;;;;;;;;;5073501;28;20083;-81
2023/07/02 04:52:24;;;;;;;0.00;0.00;;;;;;;;;;5073857;28;20484;-80
2023/07/02 04:54:50;;;;;;;0.00;0.00;;;;;;;;;;5073777;28;20040;-80
2023/07/02 04:57:16;;;;;;;0.00;0.00;;;;;;;;;;5057059;28;20135;-80
2023/07/02 04:59:43;;;;;;;0.00;0.00;;;;;;;;;;5073486;28;20044;-82
2023/07/02 05:02:09;;;;;;;0.00;0.00;;;;;;;;;;5074097;28;20435;-81
2023/07/02 05:04:35;;;;;;;0.00;0.00;;;;;;;;;;5073750;28;20051;-82
2023/07/02 05:07:01;;;;;;;0.00;0.00;;;;;;;;;;5075371;28;20045;-81
2023/07/02 05:09:27;;;;;;;0.00;0.00;;;;;;;;;;5073592;28;20041;-81
2023/07/02 05:11:53;;;;;;;0.00;0.00;;;;;;;;;;5073115;28;20070;-81
2023/07/02 05:14:19;;;;;;;0.25;0.10;;;;;;;;;;5073322;28;20044;-81
2023/07/02 05:16:45;;;;;;;0.00;0.00;;;;;;;;;;5073125;28;20083;-81
2023/07/02 05:19:11;;;;;;;0.00;0.00;;;;;;;;;;5074489;28;20041;-81
2023/07/02 05:21:37;;;;;;;0.00;0.00;;;;;;;;;;5072793;28;20256;-82
2023/07/02 05:24:03;;;;;;;0.00;0.00;;;;;;;;;;5073324;28;20056;-82
2023/07/02 05:26:29;;;;;;;0.13;0.10;;;;;;;;;;5074295;28;20041;-80
2023/07/02 05:28:55;;;;;;;0.00;0.00;;;;;;;;;;5073602;28;20157;-81
2023/07/02 05:31:21;;;;;;;0.00;0.00;;;;;;;;;;5072591;28;20044;-81
2023/07/02 05:33:47;;;;;;;0.00;0.00;;;;;;;;;;5072945;28;20064;-82
2023/07/02 05:36:13;;;;;;;0.00;0.00;;;;;;;;;;5072815;28;20048;-79
2023/07/02 05:38:39;;;;;;;0.00;0.00;;;;;;;;;;5072982;28;20044;-80
2023/07/02 05:41:05;;;;;;;0.00;0.00;;;;;;;;;;5071645;28;20041;-80
2023/07/02 05:43:31;;;;;;;0.00;0.00;;;;;;;;;;5072758;28;20399;-80
2023/07/02 05:46:00;;;;;;;0.00;0.00;;;;;;;;;;5072422;28;20048;-80
2023/07/02 05:48:26;;;;;;;0.13;0.10;;;;;;;;;;5055807;28;20448;-80
2023/07/02 05:50:52;;;;;;;0.00;0.00;;;;;;;;;;5072461;28;20068;-80
2023/07/02 05:53:18;;;;;;;0.00;0.00;;;;;;;;;;5072744;28;20098;-80
2023/07/02 05:55:44;;;;;;;0.10;0.10;;;;;;;;;;5073505;28;20095;-80
2023/07/02 05:58:11;;;;;;;0.00;0.00;;;;;;;;;;5073732;28;20063;-80
2023/07/02 06:00:37;;;;;;;0.00;0.00;;;;;;;;;;5072036;28;20396;-80
2023/07/02 06:03:03;;;;;;;0.00;0.00;;;;;;;;;;5073554;28;20526;-82
2023/07/02 06:05:29;;;;;;;0.00;0.00;;;;;;;;;;5072192;28;20036;-81
2023/07/02 06:07:55;;;;;;;0.00;0.00;;;;;;;;;;5073638;28;20500;-81
2023/07/02 06:10:21;;;;;;;0.00;0.00;;;;;;;;;;5055610;28;20044;-81
2023/07/02 06:12:47;;;;;;;0.00;0.00;;;;;;;;;;5073640;28;20063;-80
2023/07/02 06:15:13;;;;;;;0.00;0.00;;;;;;;;;;5072527;28;20104;-82
2023/07/02 06:17:39;;;;;;;0.00;0.00;;;;;;;;;;5073754;28;20037;-81
2023/07/02 06:20:06;;;;;;;0.00;0.00;;;;;;;;;;5055381;28;20120;-81
2023/07/02 06:22:32;;;;;;;0.00;0.00;;;;;;;;;;5072584;28;20076;-80
2023/07/02 06:24:58;;;;;;;0.00;0.00;;;;;;;;;;5072796;28;20472;-82
2023/07/02 06:27:24;;;;;;;0.00;0.00;;;;;;;;;;5073265;28;20049;-80
2023/07/02 06:29:51;;;;;;;0.00;0.00;;;;;;;;;;5073327;28;20047;-81
2023/07/02 06:32:17;;;;;;;0.00;0.00;;;;;;;;;;5072794;28;20150;-81
2023/07/02 06:34:44;;;;;;;0.00;0.00;;;;;;;;;;5073384;28;20040;-80
2023/07/02 06:37:10;;;;;;;0.00;0.00;;;;;;;;;;5071671;28;20484;-81
2023/07/02 06:39:36;;;;;;;0.00;0.00;;;;;;;;;;5073099;28;20040;-81
2023/07/02 06:42:02;;;;;;;0.00;0.00;;;;;;;;;;5073041;28;20048;-81
2023/07/02 06:44:27;;;;;;;0.00;0.00;;;;;;;;;;5072272;28;20044;-80
2023/07/02 06:46:53;;;;;;;0.00;0.00;;;;;;;;;;5071714;28;20059;-81
2023/07/02 06:49:21;;;;;;;0.00;0.00;;;;;;;;;;5074083;28;20511;-83
2023/07/02 06:51:47;;;;;;;0.00;0.00;;;;;;;;;;5071469;28;20098;-81
2023/07/02 06:54:13;;;;;;;0.00;0.00;;;;;;;;;;5072372;28;20507;-81
2023/07/02 06:56:39;;;;;;;0.00;0.00;;;;;;;;;;5072168;28;20051;-83
2023/07/02 06:59:05;;;;;;;0.00;0.00;;;;;;;;;;5072619;28;20044;-81
2023/07/02 07:01:31;;;;;;;0.00;0.00;;;;;;;;;;5072125;28;20048;-82
2023/07/02 07:03:57;;;;;;;0.00;0.00;;;;;;;;;;5072937;28;20090;-81
2023/07/02 07:06:23;;;;;;;0.00;0.00;;;;;;;;;;5072764;28;20040;-81
2023/07/02 07:08:49;;;;;;;0.00;0.00;;;;;;;;;;5073839;28;20040;-81
2023/07/02 07:11:15;;;;;;;0.00;0.00;;;;;;;;;;5071909;28;20047;-81
2023/07/02 07:13:43;;;;;;;0.00;0.00;;;;;;;;;;5072469;28;20037;-82
2023/07/02 07:16:09;;;;;;;0.00;0.00;;;;;;;;;;5055263;28;20056;-81
2023/07/02 07:18:35;;;;;;;0.00;0.00;;;;;;;;;;5073063;28;20128;-81
2023/07/02 07:21:01;;;;;;;0.00;0.00;;;;;;;;;;5072240;28;20055;-81
2023/07/02 07:23:27;;;;;;;0.00;0.00;;;;;;;;;;5072429;28;20051;-82
2023/07/02 07:25:53;;;;;;;0.00;0.00;;;;;;;;;;5073583;28;20041;-81
2023/07/02 07:28:19;;;;;;;0.00;0.00;;;;;;;;;;5074436;28;20086;-80
2023/07/02 07:30:45;;;;;;;0.00;0.00;;;;;;;;;;5076178;28;20048;-80
2023/07/02 07:33:11;;;;;;;0.00;0.00;;;;;;;;;;5072184;28;20119;-81
2023/07/02 07:35:37;;;;;;;0.20;0.00;;;;;;;;;;5073894;28;20122;-81
2023/07/02 07:38:03;;;;;;;0.00;0.00;;;;;;;;;;5072681;28;20040;-81
2023/07/02 07:40:29;;;;;;;0.00;0.00;;;;;;;;;;5079590;28;20036;-81
2023/07/02 07:42:55;;;;;;;0.00;0.00;;;;;;;;;;5071778;28;20037;-81
2023/07/02 07:45:21;;;;;;;0.00;0.00;;;;;;;;;;5072323;28;20040;-82
2023/07/02 07:47:47;;;;;;;0.00;0.00;;;;;;;;;;5072411;28;20045;-81
2023/07/02 07:50:13;;;;;;;0.00;0.00;;;;;;;;;;5071109;28;20044;-81
2023/07/02 07:52:40;;;;;;;0.00;0.00;;;;;;;;;;5070667;28;20507;-81
2023/07/02 07:55:06;;;;;;;0.00;0.00;;;;;;;;;;5070648;28;20040;-81
2023/07/02 07:57:32;;;;;;;0.00;0.00;;;;;;;;;;5072234;28;20060;-82
2023/07/02 07:59:58;;;;;;;0.00;0.00;;;;;;;;;;5072362;28;20495;-82
2023/07/02 08:02:24;;;;;;;0.00;0.00;;;;;;;;;;5054036;28;20044;-82
2023/07/02 08:04:50;;;;;;;0.00;0.00;;;;;;;;;;5072616;28;20040;-83
2023/07/02 08:07:16;;;;;;;0.00;0.00;;;;;;;;;;5074053;28;20098;-81
2023/07/02 08:09:42;;;;;;;0.00;0.00;;;;;;;;;;5074497;28;20088;-81
2023/07/02 08:12:09;;;;;;;0.00;0.00;;;;;;;;;;5073787;28;20543;-81
2023/07/02 08:14:35;;;;;;;0.00;0.00;;;;;;;;;;5075079;28;20044;-82
2023/07/02 08:17:01;;;;;;;0.00;0.00;;;;;;;;;;5073940;28;20040;-80
2023/07/02 08:19:27;;;;;;;0.00;0.00;;;;;;;;;;5075831;28;20090;-81
2023/07/02 08:21:53;;;;;;;0.10;0.10;;;;;;;;;;5075443;28;20036;-82
2023/07/02 08:24:19;;;;;;;0.00;0.00;;;;;;;;;;5074496;28;20127;-82
2023/07/02 08:26:45;;;;;;;0.00;0.00;;;;;;;;;;5075294;28;20041;-82
2023/07/02 08:29:11;;;;;;;0.00;0.00;;;;;;;;;;5074333;28;20036;-81
2023/07/02 08:31:37;;;;;;;0.00;0.00;;;;;;;;;;5073835;28;20127;-82
2023/07/02 08:34:03;;;;;;;0.00;0.00;;;;;;;;;;5074374;28;20120;-81
2023/07/02 08:36:29;;;;;;;0.00;0.00;;;;;;;;;;5074322;28;20049;-81
2023/07/02 08:38:55;;;;;;;0.00;0.00;;;;;;;;;;5073672;28;20051;-81
2023/07/02 08:41:23;;;;;;;0.00;0.00;;;;;;;;;;5074934;28;20377;-82
2023/07/02 08:43:49;;;;;;;0.00;0.00;;;;;;;;;;5075090;28;20405;-81
2023/07/02 08:46:16;;;;;;;0.00;0.00;;;;;;;;;;5073690;28;20047;-81
2023/07/02 08:48:42;;;;;;;0.00;0.00;;;;;;;;;;5073463;28;20045;-81
2023/07/02 08:51:08;;;;;;;0.00;0.00;;;;;;;;;;5074828;28;20044;-81
2023/07/02 08:53:34;;;;;;;0.00;0.00;;;;;;;;;;5073287;28;20048;-82
2023/07/02 08:56:01;;;;;;;0.00;0.00;;;;;;;;;;5073329;28;20147;-81
2023/07/02 08:58:27;;;;;;;0.00;0.00;;;;;;;;;;5073366;28;20052;-82
2023/07/02 09:01:10;;;;;;;0.00;0.00;;;;;;;;;;5073178;28;20095;-81
2023/07/02 09:03:39;;;;;;;0.00;0.00;;;;;;;;;;5073298;28;20511;-82
2023/07/02 09:06:05;;;;;;;0.00;0.00;;;;;;;;;;5074518;28;20052;-82
2023/07/02 09:08:33;;;;;;;0.00;0.00;;;;;;;;;;5073001;28;20510;-82
2023/07/02 09:11:09;;;;;;;0.00;0.00;;;;;;;;;;5074561;28;20076;-82
2023/07/02 09:13:47;;;;;;;0.00;0.00;;;;;;;;;;5073282;28;20051;-81
2023/07/02 09:16:28;;;;;;;0.00;0.00;;;;;;;;;;5073414;28;20036;-82
2023/07/02 09:19:04;;;;;;;0.00;0.00;;;;;;;;;;5073191;28;20076;-82
2023/07/02 09:21:30;;;;;;;;;;;;;;;;;;5074505;28;20484;-82
2023/07/02 09:23:56;;;;;;;0.00;0.00;;;;;;;;;;5073056;28;19962;-82
2023/07/02 09:26:22;;;;;;;0.00;0.00;;;;;;;;;;5074221;28;20094;-82
2023/07/02 09:28:48;;;;;;;0.00;0.00;;;;;;;;;;5074060;28;20159;-82
2023/07/02 09:31:15;;;;;;;0.00;0.00;;;;;;;;;;5072742;28;20115;-82
2023/07/02 09:33:41;;;;;;;0.00;0.00;;;;;;;;;;5055938;28;20094;-82
2023/07/02 09:36:07;;;;;;;0.00;0.00;;;;;;;;;;5072747;28;20093;-82
2023/07/02 09:38:33;;;;;;;0.00;0.00;;;;;;;;;;5072572;28;20041;-82
2023/07/02 09:40:59;;;;;;;0.00;0.00;;;;;;;;;;5072470;28;20076;-82
2023/07/02 09:43:26;;;;;;;0.00;0.00;;;;;;;;;;5072230;28;20105;-83
2023/07/02 09:45:56;;;;;;;0.45;0.10;;;;;;;;;;5072397;28;20044;-82
2023/07/02 09:48:23;;;;;;;0.00;0.00;;;;;;;;;;5056221;28;20040;-81
2023/07/02 09:50:50;;;;;;;0.00;0.00;;;;;;;;;;5073682;28;20047;-82
2023/07/02 09:53:16;;;;;;;0.00;0.00;;;;;;;;;;5073562;28;20047;-83
2023/07/02 09:55:43;;;;;;;0.00;0.00;;;;;;;;;;5072500;28;20045;-82
2023/07/02 09:58:09;;;;;;;0.00;0.00;;;;;;;;;;5071863;28;20060;-82
2023/07/02 10:00:35;;;;;;;0.00;0.00;;;;;;;;;;5072249;28;20041;-82
2023/07/02 10:03:01;;;;;;;0.00;0.00;;;;;;;;;;5055277;28;20048;-81
2023/07/02 10:05:31;;;;;;;0.00;0.00;;;;;;;;;;5073725;28;20040;-82
2023/07/02 10:08:14;;;;;;;0.00;0.00;;;;;;;;;;5073339;28;20545;-83
2023/07/02 10:10:40;;;;;;;0.05;0.00;;;;;;;;;;5071839;28;20036;-81
2023/07/02 10:13:06;;;;;;;0.00;0.00;;;;;;;;;;5071729;28;20106;-81
2023/07/02 10:15:37;;;;;;;0.00;0.00;;;;;;;;;;5072734;28;20472;-81
2023/07/02 10:18:03;;;;;;;0.00;0.00;;;;;;;;;;5071909;28;20090;-81
2023/07/02 10:20:36;;;;;;;0.00;0.00;;;;;;;;;;5071810;28;20123;-81
2023/07/02 10:23:02;;;;;;;0.00;0.00;;;;;;;;;;5073189;28;20094;-83
2023/07/02 10:25:38;;;;;;;0.00;0.00;;;;;;;;;;5072089;28;20501;-81
2023/07/02 10:28:19;;;;;;;0.00;0.00;;;;;;;;;;5071406;28;20037;-82
2023/07/02 10:30:45;;;;;;;0.00;0.00;;;;;;;;;;5072770;28;20392;-82
2023/07/02 10:33:15;;;;;;;0.00;0.00;;;;;;;;;;5071572;28;20488;-82
2023/07/02 10:35:42;;;;;;;0.00;0.00;;;;;;;;;;5071886;28;20048;-82
2023/07/02 10:38:08;;;;;;;0.00;0.00;;;;;;;;;;5071429;28;20053;-82
2023/07/02 10:40:34;;;;;;;0.00;0.00;;;;;;;;;;5071598;28;20047;-82
2023/07/02 10:43:00;;;;;;;0.00;0.00;;;;;;;;;;5071451;28;20040;-81
2023/07/02 10:45:33;;;;;;;0.00;0.00;;;;;;;;;;5071726;28;20518;-82
2023/07/02 10:47:59;;;;;;;0.00;0.00;;;;;;;;;;5071646;28;20040;-82
2023/07/02 10:50:27;;;;;;;0.00;0.00;;;;;;;;;;5073213;28;20040;-83
2023/07/02 10:52:53;;;;;;;0.00;0.00;;;;;;;;;;5071613;28;20041;-82
2023/07/02 10:55:20;;;;;;;0.00;0.00;;;;;;;;;;5072742;28;20047;-82
2023/07/02 10:57:46;;;;;;;0.00;0.00;;;;;;;;;;5071398;28;20056;-82
2023/07/02 11:00:12;;;;;;;0.00;0.00;;;;;;;;;;5070687;28;20484;-83
2023/07/02 11:02:38;;;;;;;0.00;0.00;;;;;;;;;;5072673;28;20044;-82
2023/07/02 11:05:06;;;;;;;0.30;0.00;;;;;;;;;;5071402;28;20404;-83
2023/07/02 11:07:32;;;;;;;0.32;0.10;;;;;;;;;;5072611;28;20041;-83
2023/07/02 11:09:58;;;;;;;0.00;0.00;;;;;;;;;;5071064;28;20119;-82
2023/07/02 11:12:28;;;;;;;0.00;0.00;;;;;;;;;;5071231;28;20127;-82
2023/07/02 11:14:54;;;;;;;0.00;0.00;;;;;;;;;;5071524;28;20174;-82
2023/07/02 11:17:25;;;;;;;0.00;0.00;;;;;;;;;;5071468;28;20067;-83
2023/07/02 11:19:51;;;;;;;0.05;0.00;;;;;;;;;;5071201;28;20068;-83
2023/07/02 11:22:18;;;;;;;0.00;0.00;;;;;;;;;;5071314;28;20048;-82
2023/07/02 11:24:44;;;;;;;0.40;0.40;;;;;;;;;;5071256;28;20048;-83
2023/07/02 11:27:10;;;;;;;0.00;0.00;;;;;;;;;;5072776;28;20063;-83
2023/07/02 11:29:38;;;;;;;0.00;0.00;;;;;;;;;;5071304;28;20049;-83
2023/07/02 11:32:11;;;;;;;0.00;0.00;;;;;;;;;;5072599;28;20044;-82
2023/07/02 11:34:37;;;;;;;0.00;0.00;;;;;;;;;;5070982;28;20484;-83
2023/07/02 11:37:04;;;;;;;0.00;0.00;;;;;;;;;;5054577;28;20037;-82
2023/07/02 11:39:30;;;;;;;0.17;0.00;;;;;;;;;;5072489;28;20040;-82
2023/07/02 11:41:56;;;;;;;0.00;0.00;;;;;;;;;;5058519;28;20072;-82
2023/07/02 11:44:22;;;;;;;0.00;0.00;;;;;;;;;;5075089;28;20087;-82
2023/07/02 11:46:48;;;;;;;0.00;0.00;;;;;;;;;;5075095;28;20447;-87
2023/07/02 11:49:14;;;;;;;0.00;0.00;;;;;;;;;;5074541;28;20076;-82
2023/07/02 11:51:41;;;;;;;0.00;0.00;;;;;;;;;;5074718;28;20044;-81
2023/07/02 11:54:08;;;;;;;0.00;0.00;;;;;;;;;;5074544;28;20041;-82
2023/07/02 11:56:34;;;;;;;0.00;0.00;;;;;;;;;;5058110;28;20495;-81
2023/07/02 11:59:00;;;;;;;0.00;0.00;;;;;;;;;;5074756;28;20502;-81
2023/07/02 12:01:26;;;;;;;0.00;0.00;;;;;;;;;;5074397;28;20044;-81
2023/07/02 12:03:52;;;;;;;0.00;0.00;;;;;;;;;;5074491;28;20123;-82
2023/07/02 12:06:18;;;;;;;0.00;0.00;;;;;;;;;;5074831;28;20079;-81
2023/07/02 12:08:44;;;;;;;0.00;0.00;;;;;;;;;;5057670;28;20041;-82
2023/07/02 12:11:11;;;;;;;0.00;0.00;;;;;;;;;;5074480;28;20049;-81
2023/07/02 12:13:37;;;;;;;0.00;0.00;;;;;;;;;;5075630;28;20059;-81
2023/07/02 12:16:03;;;;;;;0.00;0.00;;;;;;;;;;5074192;28;20115;-81
2023/07/02 12:18:29;;;;;;;0.00;0.00;;;;;;;;;;5074107;28;20092;-82
2023/07/02 12:20:55;;;;;;;0.00;0.00;;;;;;;;;;5075265;28;20079;-82
2023/07/02 12:23:21;;;;;;;0.00;0.00;;;;;;;;;;5057419;28;20039;-82
2023/07/02 12:25:47;;;;;;;0.00;0.00;;;;;;;;;;5073862;28;20037;-82
2023/07/02 12:28:13;;;;;;;0.00;0.00;;;;;;;;;;5074043;28;20088;-82
2023/07/02 12:30:39;;;;;;;0.00;0.00;;;;;;;;;;5073826;28;20064;-82
2023/07/02 12:33:05;;;;;;;0.00;0.00;;;;;;;;;;5075230;28;20044;-82
2023/07/02 12:35:31;;;;;;;0.00;0.00;;;;;;;;;;5057441;28;20380;-84
2023/07/02 12:37:57;;;;;;;0.00;0.00;;;;;;;;;;5075698;28;20037;-83
2023/07/02 12:40:23;;;;;;;0.00;0.00;;;;;;;;;;5074692;28;20064;-82
2023/07/02 12:42:50;;;;;;;0.00;0.00;;;;;;;;;;5075124;28;20047;-81
2023/07/02 12:45:17;;;;;;;0.00;0.00;;;;;;;;;;5073494;28;20056;-86
2023/07/02 12:47:43;;;;;;;0.00;0.00;;;;;;;;;;5073600;28;20036;-82
2023/07/02 12:50:10;;;;;;;0.00;0.00;;;;;;;;;;5073142;28;20044;-82
2023/07/02 12:52:36;;;;;;;0.00;0.00;;;;;;;;;;5057225;28;20055;-82
2023/07/02 12:55:02;;;;;;;0.00;0.00;;;;;;;;;;5074640;28;20045;-81
2023/07/02 12:57:28;;;;;;;0.00;0.00;;;;;;;;;;5075117;28;20135;-81
2023/07/02 12:59:56;;;;;;;0.00;0.00;;;;;;;;;;5078675;28;20044;-82
2023/07/02 13:02:37;;;;;;;0.00;0.00;;;;;;;;;;5076706;28;20052;-82
2023/07/02 13:05:03;;;;;;;0.00;0.00;;;;;;;;;;5074121;28;20399;-82
2023/07/02 13:07:30;;;;;;;0.00;0.00;;;;;;;;;;5075097;28;20117;-82
2023/07/02 13:09:56;;;;;;;0.00;0.00;;;;;;;;;;5074424;28;20045;-82
2023/07/02 13:12:22;;;;;;;0.00;0.00;;;;;;;;;;5056255;28;20051;-82
2023/07/02 13:14:48;;;;;;;0.00;0.00;;;;;;;;;;5073204;28;20040;-82
2023/07/02 13:17:14;;;;;;;0.00;0.00;;;;;;;;;;5074518;28;20482;-82
2023/07/02 13:19:40;;;;;;;0.00;0.00;;;;;;;;;;5073158;28;20067;-82
2023/07/02 13:22:06;;;;;;;0.00;0.00;;;;;;;;;;5074247;28;20123;-82
2023/07/02 13:24:35;;;;;;;0.70;0.15;;;;;;;;;;5073125;28;20048;-81
2023/07/02 13:27:03;;;;;;;0.08;0.08;;;;;;;;;;5072695;28;20036;-82
2023/07/02 13:29:29;;;;;;;0.00;0.00;;;;;;;;;;5073283;28;20176;-82
2023/07/02 13:31:55;;;;;;;0.00;0.00;;;;;;;;;;5072599;28;20242;-83
2023/07/02 13:34:21;;;;;;;0.13;0.00;;;;;;;;;;5072986;28;20098;-82
2023/07/02 13:36:47;;;;;;;0.00;0.00;;;;;;;;;;5073838;28;20135;-83
2023/07/02 13:39:13;;;;;;;0.00;0.00;;;;;;;;;;5072910;28;20083;-83
2023/07/02 13:41:39;;;;;;;0.00;0.00;;;;;;;;;;5072478;28;20488;-83
2023/07/02 13:44:05;;;;;;;0.00;0.00;;;;;;;;;;5072632;28;20135;-82
2023/07/02 13:46:31;;;;;;;0.00;0.00;;;;;;;;;;5072706;28;20381;-83
2023/07/02 13:48:57;;;;;;;0.00;0.00;;;;;;;;;;5072683;28;20185;-82
2023/07/02 13:51:23;;;;;;;0.00;0.00;;;;;;;;;;5074289;28;20493;-82
2023/07/02 13:53:49;;;;;;;0.10;0.10;;;;;;;;;;5074269;28;20041;-82
2023/07/02 13:56:15;;;;;;;0.00;0.00;;;;;;;;;;5074970;28;20032;-82
2023/07/02 13:58:48;;;;;;;0.00;0.00;;;;;;;;;;5075365;28;20141;-83
2023/07/02 14:01:14;;;;;;;0.00;0.00;;;;;;;;;;5075131;28;20052;-83
2023/07/02 14:03:40;;;;;;;0.00;0.00;;;;;;;;;;5076802;28;20491;-82
2023/07/02 14:06:06;;;;;;;0.00;0.00;;;;;;;;;;5073768;28;20047;-81
2023/07/02 14:08:32;;;;;;;0.00;0.00;;;;;;;;;;5056565;28;20551;-82
2023/07/02 14:10:58;;;;;;;0.00;0.00;;;;;;;;;;5074334;28;20041;-82
2023/07/02 14:13:24;;;;;;;0.08;0.08;;;;;;;;;;5073098;28;20040;-82
2023/07/02 14:15:50;;;;;;;0.00;0.00;;;;;;;;;;5073155;28;20067;-82
2023/07/02 14:18:16;;;;;;;0.00;0.00;;;;;;;;;;5056711;28;20059;-82
2023/07/02 14:20:42;;;;;;;0.00;0.00;;;;;;;;;;5074209;28;20032;-82
2023/07/02 14:23:09;;;;;;;0.00;0.00;;;;;;;;;;5072819;28;20132;-81
2023/07/02 14:25:35;;;;;;;0.00;0.00;;;;;;;;;;5072573;28;20434;-81
2023/07/02 14:28:01;;;;;;;0.00;0.00;;;;;;;;;;5073178;28;20036;-81
2023/07/02 14:30:27;;;;;;;0.00;0.00;;;;;;;;;;5072623;28;20044;-81
2023/07/02 14:32:53;;;;;;;0.05;0.00;;;;;;;;;;5073565;28;20044;-81
2023/07/02 14:35:21;;;;;;;0.00;0.00;;;;;;;;;;5075832;28;20496;-81
2023/07/02 14:37:48;;;;;;;0.00;0.00;;;;;;;;;;5072862;28;20476;-82
2023/07/02 14:40:14;;;;;;;0.00;0.00;;;;;;;;;;5073428;28;20116;-83